Time;durP1;ratioP1;P1;durP2;ratioP2;P2;SDS_P1;SDS_P2;PMS_P1;PMS_P2;Temp;Humidity;BMP_temperature;BMP_pressure;BME280_temperature;BME280_humidity;BME280_pressure;Samples;Min_cycle;Max_cycle;Signal;HPM_P1;HPM_P2
2024/04/14 00:00:09;;;;;;;;;16.25;14.75;;;;;-143.90;94.40;75246.66;5281987;26;100966;-72
2024/04/14 00:02:36;;;;;;;;;13.75;12.75;;;;;-143.90;95.14;75240.44;5281085;26;98102;-72
2024/04/14 00:05:03;;;;;;;;;14.25;13.50;;;;;-143.90;95.31;75238.38;5275548;26;98444;-70
2024/04/14 00:07:30;;;;;;;;;20.50;19.75;;;;;-143.90;97.53;75238.38;5273377;26;98487;-71
2024/04/14 00:09:57;;;;;;;;;16.25;15.50;;;;;-143.90;96.71;75240.44;5283472;26;99743;-71
2024/04/14 00:12:24;;;;;;;;;16.00;15.50;;;;;-143.90;96.69;75240.44;5281995;25;99926;-71
2024/04/14 00:14:51;;;;;;;;;15.50;14.00;;;;;-143.90;96.76;75236.31;5278767;26;99508;-71
2024/04/14 00:17:18;;;;;;;;;14.50;13.25;;;;;-143.90;96.88;75234.25;5283031;26;97733;-71
2024/04/14 00:19:44;;;;;;;;;16.25;15.25;;;;;-143.90;97.24;75219.78;5277951;26;100074;-71
2024/04/14 00:22:12;;;;;;;;;14.50;12.75;;;;;-143.90;97.11;75223.91;5280033;26;98546;-71
2024/04/14 00:24:39;;;;;;;;;13.75;13.25;;;;;-143.90;97.04;75223.91;5274135;26;98374;-71
2024/04/14 00:27:05;;;;;;;;;10.00;10.00;;;;;-143.90;96.88;75211.50;5283460;26;98685;-71
2024/04/14 00:29:33;;;;;;;;;10.25;10.00;;;;;-143.90;97.11;75211.50;5269336;26;99910;-71
2024/04/14 00:31:59;;;;;;;;;13.75;13.00;;;;;-143.90;97.38;75197.03;5283839;26;98194;-71
2024/04/14 00:34:26;;;;;;;;;18.25;15.50;;;;;-143.90;97.52;75201.16;5283103;26;98336;-71
2024/04/14 00:36:53;;;;;;;;;14.25;14.25;;;;;-143.90;97.69;75197.03;5284215;26;98348;-71
2024/04/14 00:39:20;;;;;;;;;15.50;13.75;;;;;-143.90;97.87;75188.75;5276074;26;99796;-71
2024/04/14 00:41:47;;;;;;;;;15.75;15.00;;;;;-143.90;97.92;75184.63;5280285;25;97739;-72
2024/04/14 00:44:14;;;;;;;;;14.00;14.00;;;;;-143.90;97.76;75174.28;5261528;26;98232;-71
2024/04/14 00:46:40;;;;;;;;;18.75;16.00;;;;;-143.90;97.59;75168.09;5281904;26;98483;-72
2024/04/14 00:49:09;;;;;;;;;16.25;14.75;;;;;-143.90;97.50;75155.69;5282326;26;101574;-72
2024/04/14 00:51:36;;;;;;;;;21.75;16.50;;;;;-143.90;97.48;75155.69;5273052;26;98541;-72
2024/04/14 00:54:05;;;;;;;;;13.00;11.50;;;;;-143.90;96.85;75147.41;5280291;26;98646;-72
2024/04/14 00:56:32;;;;;;;;;13.00;12.00;;;;;-143.90;96.53;75141.22;5281644;26;98231;-72
2024/04/14 00:58:59;;;;;;;;;12.00;12.00;;;;;-143.90;96.44;75135.00;5284032;26;99722;-72
2024/04/14 01:01:26;;;;;;;;;12.50;12.00;;;;;-143.90;96.36;75130.88;5262029;26;98109;-72
2024/04/14 01:03:53;;;;;;;;;13.25;12.00;;;;;-143.90;96.03;75126.75;5269210;26;99258;-72
2024/04/14 01:06:20;;;;;;;;;10.50;10.00;;;;;-143.90;95.83;75126.75;5282849;26;98342;-72
2024/04/14 01:08:47;;;;;;;;;14.00;13.50;;;;;-143.90;96.07;75126.75;5280020;26;99941;-72
2024/04/14 01:11:14;;;;;;;;;11.00;11.00;;;;;-143.90;95.85;75122.59;5281342;26;102330;-72
2024/04/14 01:13:46;;;;;;;;;12.00;11.75;;;;;-143.90;95.60;75120.53;5271968;26;98127;-72
2024/04/14 01:16:13;;;;;;;;;12.50;11.00;;;;;-143.90;95.47;75118.47;5249565;26;98318;-72
2024/04/14 01:18:40;;;;;;;;;10.50;10.00;;;;;-143.90;95.31;75114.34;5251232;26;99931;-72
2024/04/14 01:21:07;;;;;;;;;5.75;5.75;;;;;-143.90;95.17;75120.53;5279089;26;98606;-72
2024/04/14 01:23:34;;;;;;;;;7.75;7.50;;;;;-143.90;95.23;75126.75;5273600;26;98382;-72
2024/04/14 01:26:00;;;;;;;;;6.75;5.75;;;;;-143.90;95.11;75122.59;5280533;26;98469;-72
2024/04/14 01:28:27;;;;;;;;;5.75;4.75;;;;;-143.90;95.32;75124.66;5283231;26;99797;-72
2024/04/14 01:30:54;;;;;;;;;6.75;5.75;;;;;-143.90;95.30;75124.66;5279055;26;98165;-72
2024/04/14 01:33:21;;;;;;;;;5.75;5.25;;;;;-143.90;95.31;75135.00;5276135;26;98280;-72
2024/04/14 01:35:48;;;;;;;;;7.00;7.00;;;;;-143.90;95.41;75135.00;5277275;26;99881;-72
2024/04/14 01:38:15;;;;;;;;;7.00;6.00;;;;;-143.90;95.61;75139.16;5273265;26;100177;-71
2024/04/14 01:40:51;;;;;;;;;5.00;5.00;;;;;-143.90;95.82;75145.34;5283272;26;98738;-71
2024/04/14 01:43:18;;;;;;;;;9.00;7.00;;;;;-143.90;95.81;75147.41;5290819;26;102326;-72
2024/04/14 01:45:45;;;;;;;;;5.25;4.75;;;;;-143.90;96.00;75147.41;5280754;26;98667;-72
2024/04/14 01:48:12;;;;;;;;;6.50;6.00;;;;;-143.90;95.99;75153.63;5253990;26;99968;-71
2024/04/14 01:50:39;;;;;;;;;5.00;4.75;;;;;-143.90;96.22;75157.75;5282603;25;97937;-71
2024/04/14 01:53:06;;;;;;;;;9.25;7.50;;;;;-143.90;96.41;75159.81;5280910;26;98156;-71
2024/04/14 01:55:33;;;;;;;;;7.50;6.25;;;;;-143.90;96.63;75163.94;5276029;26;98415;-71
2024/04/14 01:58:00;;;;;;;;;6.75;6.00;;;;;-143.90;96.88;75172.22;5287474;26;99802;-71
2024/04/14 02:00:28;;;;;;;;;12.75;10.75;;;;;-143.90;96.94;75174.28;5280828;26;98339;-71
2024/04/14 02:02:56;;;;;;;;;10.25;7.00;;;;;-143.90;96.97;75176.34;5282706;26;98658;-71
2024/04/14 02:05:23;;;;;;;;;8.50;7.00;;;;;-143.90;97.23;75172.22;5276858;26;98162;-71
2024/04/14 02:07:50;;;;;;;;;7.50;6.25;;;;;-143.90;97.32;75176.34;5275616;26;99777;-72
2024/04/14 02:10:16;;;;;;;;;8.00;7.00;;;;;-143.90;97.46;75178.41;5280528;26;98234;-71
2024/04/14 02:12:43;;;;;;;;;5.25;5.00;;;;;-143.90;97.48;75178.41;5283641;26;98688;-71
2024/04/14 02:15:10;;;;;;;;;9.25;7.75;;;;;-143.90;97.82;75176.34;5282680;26;97894;-72
2024/04/14 02:17:37;;;;;;;;;11.00;10.75;;;;;-143.90;98.06;75180.50;5263598;26;100282;-71
2024/04/14 02:20:04;;;;;;;;;6.75;6.75;;;;;-143.90;97.78;75178.41;5280753;26;100007;-72
2024/04/14 02:22:31;;;;;;;;;9.00;6.25;;;;;-143.90;97.98;75176.34;5283819;26;98753;-71
2024/04/14 02:24:58;;;;;;;;;7.75;7.75;;;;;-143.90;98.11;75174.28;5283367;26;99629;-71
2024/04/14 02:27:25;;;;;;;;;10.75;10.00;;;;;-143.90;98.48;75176.34;5280554;26;100066;-71
2024/04/14 02:29:52;;;;;;;;;11.50;10.00;;;;;-143.90;98.31;75163.94;5276966;26;98112;-71
2024/04/14 02:32:19;;;;;;;;;6.75;6.00;;;;;-143.90;98.41;75159.81;5286598;26;98345;-72
2024/04/14 02:34:46;;;;;;;;;7.50;7.00;;;;;-143.90;98.58;75161.88;5286617;26;98250;-72
2024/04/14 02:37:13;;;;;;;;;4.50;4.50;;;;;-143.90;98.63;75159.81;5281553;26;102880;-72
2024/04/14 02:39:40;;;;;;;;;6.00;6.00;;;;;-143.90;98.55;75155.69;5275734;26;98297;-71
2024/04/14 02:42:07;;;;;;;;;6.50;5.00;;;;;-143.90;98.38;75149.47;5281921;26;98267;-72
2024/04/14 02:44:34;;;;;;;;;10.50;10.50;;;;;-143.90;99.33;75147.41;5285681;26;97911;-71
2024/04/14 02:47:01;;;;;;;;;11.00;9.50;;;;;-143.90;99.39;75151.53;5285521;26;99742;-71
2024/04/14 02:49:28;;;;;;;;;11.25;11.25;;;;;-143.90;99.18;75145.34;5276590;26;98700;-71
2024/04/14 02:51:56;;;;;;;;;11.50;10.75;;;;;-143.90;99.83;75139.16;5281319;26;97749;-71
2024/04/14 02:54:23;;;;;;;;;12.25;12.25;;;;;-143.90;100.00;75135.00;5285581;25;99676;-71
2024/04/14 02:56:50;;;;;;;;;11.00;10.50;;;;;-143.90;99.83;75130.88;5270310;26;99981;-72
2024/04/14 02:59:17;;;;;;;;;11.75;11.25;;;;;-143.90;99.56;75130.88;5284911;26;98755;-71
2024/04/14 03:01:46;;;;;;;;;6.75;6.75;;;;;-143.90;99.51;75128.81;5244390;26;105609;-72
2024/04/14 03:04:12;;;;;;;;;6.75;6.25;;;;;-143.90;99.13;75128.81;5279163;26;101309;-71
2024/04/14 03:06:39;;;;;;;;;6.50;6.25;;;;;-143.90;99.23;75126.75;5279489;26;99825;-71
2024/04/14 03:09:06;;;;;;;;;6.00;5.75;;;;;-143.90;99.22;75124.66;5282369;26;99856;-71
2024/04/14 03:11:33;;;;;;;;;7.00;5.00;;;;;-143.90;99.60;75124.66;5276413;26;98334;-71
2024/04/14 03:14:00;;;;;;;;;9.00;5.75;;;;;-143.90;99.53;75126.75;5317875;26;98131;-71
2024/04/14 03:16:27;;;;;;;;;11.75;10.25;;;;;-143.90;100.00;75130.88;5288838;26;100259;-71
2024/04/14 03:18:54;;;;;;;;;7.50;7.50;;;;;-143.90;100.00;75130.88;5281494;26;99613;-71
2024/04/14 03:21:21;;;;;;;;;8.50;6.00;;;;;-143.90;100.00;75137.06;5282925;26;98480;-71
2024/04/14 03:23:50;;;;;;;;;6.75;6.75;;;;;-143.90;99.90;75132.94;5278923;25;102318;-72
2024/04/14 03:26:17;;;;;;;;;6.00;6.00;;;;;-143.90;100.00;75130.88;5282456;26;99852;-72
2024/04/14 03:28:44;;;;;;;;;6.25;6.00;;;;;-143.90;100.00;75139.16;5281516;26;99917;-72
2024/04/14 03:31:10;;;;;;;;;5.25;5.25;;;;;-143.90;100.00;75130.88;5281466;26;98518;-72
2024/04/14 03:33:38;;;;;;;;;9.00;5.50;;;;;-143.90;99.85;75137.06;5265942;26;98323;-72
2024/04/14 03:36:07;;;;;;;;;6.00;5.00;;;;;-143.90;100.00;75139.16;5283058;26;100103;-72
2024/04/14 03:38:34;;;;;;;;;5.25;5.25;;;;;-143.90;100.00;75135.00;5284840;26;99575;-72
2024/04/14 03:41:01;;;;;;;;;8.25;7.50;;;;;-143.90;100.00;75137.06;5285383;26;99183;-72
2024/04/14 03:43:29;;;;;;;;;7.50;7.00;;;;;-143.90;100.00;75135.00;5272488;26;102479;-72
2024/04/14 03:45:56;;;;;;;;;9.00;9.00;;;;;-143.90;100.00;75139.16;5280953;26;100078;-72
2024/04/14 03:48:23;;;;;;;;;8.00;7.00;;;;;-143.90;100.00;75143.28;5282723;26;97996;-72
2024/04/14 03:50:50;;;;;;;;;7.75;7.75;;;;;-143.90;100.00;75143.28;5281342;26;98401;-72
2024/04/14 03:53:16;;;;;;;;;12.50;11.50;;;;;-143.90;100.00;75153.63;5283623;26;98384;-72
2024/04/14 03:55:43;;;;;;;;;20.25;18.75;;;;;-143.90;100.00;75155.69;5271974;26;99730;-72
2024/04/14 03:58:10;;;;;;;;;14.75;14.00;;;;;-143.90;100.00;75163.94;5282286;26;97737;-72
2024/04/14 04:00:37;;;;;;;;;16.00;14.00;;;;;-143.90;100.00;75153.63;5282437;26;98334;-72
2024/04/14 04:03:04;;;;;;;;;15.50;15.00;;;;;-143.90;100.00;75149.47;5283591;26;97969;-71
2024/04/14 04:05:31;;;;;;;;;15.25;13.50;;;;;-143.90;100.00;75153.63;5275560;26;99652;-72
2024/04/14 04:07:58;;;;;;;;;12.00;12.00;;;;;-143.90;100.00;75155.69;5285167;26;98286;-72
2024/04/14 04:10:25;;;;;;;;;13.75;12.50;;;;;-143.90;100.00;75161.88;5278575;26;99595;-72
2024/04/14 04:12:52;;;;;;;;;9.50;9.25;;;;;-143.90;100.00;75159.81;5255533;26;98851;-73
2024/04/14 04:15:19;;;;;;;;;11.50;11.00;;;;;-143.90;100.00;75155.69;5280940;26;99983;-72
2024/04/14 04:17:45;;;;;;;;;11.25;10.25;;;;;-143.90;100.00;75147.41;5271012;26;97924;-72
2024/04/14 04:20:13;;;;;;;;;10.75;9.75;;;;;-143.90;100.00;75139.16;5277343;26;98797;-72
2024/04/14 04:22:39;;;;;;;;;11.75;10.75;;;;;-143.90;100.00;75143.28;5280441;26;99331;-72
2024/04/14 04:25:06;;;;;;;;;10.50;9.00;;;;;-143.90;100.00;75135.00;5285775;26;99759;-72
2024/04/14 04:27:33;;;;;;;;;12.25;11.75;;;;;-143.90;100.00;75124.66;5277509;26;99677;-72
2024/04/14 04:30:00;;;;;;;;;10.25;9.00;;;;;-143.90;100.00;75110.19;5284896;26;98359;-72
2024/04/14 04:32:27;;;;;;;;;12.50;12.50;;;;;-143.90;100.00;75118.47;5284885;26;97947;-72
2024/04/14 04:34:54;;;;;;;;;10.00;10.00;;;;;-143.90;100.00;75106.06;5286936;26;99272;-72
2024/04/14 04:37:21;;;;;;;;;12.50;12.00;;;;;-143.90;100.00;75087.47;5279255;26;98000;-72
2024/04/14 04:39:48;;;;;;;;;9.00;9.00;;;;;-143.90;100.00;75081.25;5276508;26;98428;-72
2024/04/14 04:42:15;;;;;;;;;12.25;11.50;;;;;-143.90;100.00;75068.84;5282331;26;98021;-72
2024/04/14 04:44:42;;;;;;;;;10.00;10.00;;;;;-143.90;100.00;75046.09;5275421;26;99297;-72
2024/04/14 04:47:09;;;;;;;;;6.00;6.00;;;;;-143.90;100.00;75031.63;5268400;26;98007;-72
2024/04/14 04:49:36;;;;;;;;;13.25;10.50;;;;;-143.90;100.00;75019.22;5271525;26;98171;-72
2024/04/14 04:52:03;;;;;;;;;12.75;12.00;;;;;-143.90;100.00;75002.69;5277033;26;99620;-71
2024/04/14 04:54:30;;;;;;;;;11.00;10.75;;;;;-143.90;100.00;74988.22;5278111;26;104451;-71
2024/04/14 04:56:57;;;;;;;;;14.75;13.00;;;;;-143.90;100.00;74967.56;5275624;26;98170;-72
2024/04/14 04:59:24;;;;;;;;;13.25;12.25;;;;;-143.90;100.00;74953.09;5277804;26;98549;-71
2024/04/14 05:01:51;;;;;;;;;14.00;11.00;;;;;-143.90;100.00;74940.69;5281937;26;98560;-71
2024/04/14 05:04:17;;;;;;;;;13.75;13.00;;;;;-143.90;100.00;74924.13;5283167;26;99762;-71
2024/04/14 05:06:44;;;;;;;;;11.25;10.25;;;;;-143.90;100.00;74905.53;5280646;26;101114;-71
2024/04/14 05:09:11;;;;;;;;;12.50;11.25;;;;;-143.90;100.00;74884.88;5280407;25;97875;-71
2024/04/14 05:11:38;;;;;;;;;12.00;11.75;;;;;-143.90;100.00;74866.25;5275429;26;98240;-71
2024/04/14 05:14:05;;;;;;;;;11.00;10.00;;;;;-143.90;100.00;74843.53;5282513;26;99745;-71
2024/04/14 05:16:31;;;;;;;;;13.25;10.50;;;;;-143.90;99.80;74831.13;5284774;26;98159;-71
2024/04/14 05:18:58;;;;;;;;;8.25;8.25;;;;;-143.90;99.02;74812.50;5283233;26;98462;-71
2024/04/14 05:21:25;;;;;;;;;13.00;13.00;;;;;-143.90;98.42;74791.84;5281447;26;99539;-71
2024/04/14 05:23:52;;;;;;;;;16.25;14.25;;;;;-143.90;97.48;74779.44;5276746;26;99793;-71
2024/04/14 05:26:19;;;;;;;;;10.00;10.00;;;;;-143.90;96.52;74762.91;5281627;26;98334;-71
2024/04/14 05:28:45;;;;;;;;;9.75;9.75;;;;;-143.90;95.49;74742.22;5285501;26;97777;-71
2024/04/14 05:31:12;;;;;;;;;13.50;12.50;;;;;-143.90;94.42;74721.56;5286054;26;98295;-71
2024/04/14 05:33:39;;;;;;;;;12.50;11.75;;;;;-143.90;93.02;74698.81;5268397;26;100166;-71
2024/04/14 05:36:06;;;;;;;;;11.50;10.75;;;;;-143.90;91.51;74669.88;5281887;26;98319;-72
2024/04/14 05:38:35;;;;;;;;;9.75;9.75;;;;;-143.90;89.33;74636.81;5280718;26;98151;-71
2024/04/14 05:41:02;;;;;;;;;15.25;14.00;;;;;-143.90;87.46;74609.94;5275644;26;98189;-71
2024/04/14 05:43:29;;;;;;;;;12.00;12.00;;;;;-143.90;85.06;74578.91;5280824;26;104427;-71
2024/04/14 05:45:56;;;;;;;;;15.50;11.25;;;;;-143.90;83.33;74545.84;5280536;26;98317;-71
2024/04/14 05:48:23;;;;;;;;;14.50;13.50;;;;;-143.90;80.99;74525.19;5282138;26;98232;-72
2024/04/14 05:50:50;;;;;;;;;14.25;13.25;;;;;-143.90;78.92;74514.84;5255406;26;98381;-72
2024/04/14 05:53:17;;;;;;;;;13.25;13.00;;;;;-143.90;78.21;74490.03;5272925;26;99764;-72
2024/04/14 05:55:44;;;;;;;;;10.25;10.25;;;;;-143.90;75.26;74473.50;5275557;26;99321;-73
2024/04/14 05:58:11;;;;;;;;;9.25;8.50;;;;;-143.90;75.78;74461.09;5277855;26;98191;-72
2024/04/14 06:00:37;;;;;;;;;13.75;10.50;;;;;-143.90;75.54;74448.69;5276002;26;97869;-71
2024/04/14 06:03:05;;;;;;;;;9.75;9.00;;;;;-143.90;74.40;74428.03;5316696;26;99937;-71
2024/04/14 06:05:32;;;;;;;;;8.25;8.25;;;;;-143.90;72.11;74428.03;5272079;26;98016;-71
2024/04/14 06:07:59;;;;;;;;;9.75;9.75;;;;;-143.90;71.47;74394.94;5280729;26;98318;-72
2024/04/14 06:10:26;;;;;;;;;9.25;9.00;;;;;-143.90;70.34;74366.00;5275729;26;99538;-72
2024/04/14 06:12:53;;;;;;;;;9.00;9.00;;;;;-143.90;69.56;74345.34;5257176;26;100778;-72
2024/04/14 06:15:20;;;;;;;;;9.75;8.50;;;;;-143.90;67.68;74324.69;5282350;26;98088;-72
2024/04/14 06:17:47;;;;;;;;;10.00;8.00;;;;;-143.90;66.89;74299.88;5272294;26;98536;-71
2024/04/14 06:20:13;;;;;;;;;7.75;7.00;;;;;-143.90;65.88;74270.94;5281871;26;102967;-72
2024/04/14 06:22:40;;;;;;;;;6.00;6.00;;;;;-143.90;65.05;74237.88;5274224;25;99751;-72
2024/04/14 06:25:07;;;;;;;;;6.00;6.00;;;;;-143.90;63.53;74213.06;5275124;26;97855;-72
2024/04/14 06:27:34;;;;;;;;;9.00;8.00;;;;;-143.90;61.11;74184.13;5273057;26;98905;-71
2024/04/14 06:30:01;;;;;;;;;7.25;7.00;;;;;-143.90;61.42;74163.47;5274875;26;98374;-72
2024/04/14 06:32:28;;;;;;;;;7.25;7.25;;;;;-143.90;58.71;74146.91;5270626;26;99568;-71
2024/04/14 06:34:55;;;;;;;;;7.50;7.50;;;;;-143.90;57.38;74142.78;5281332;26;99141;-72
2024/04/14 06:37:22;;;;;;;;;8.25;7.00;;;;;-143.90;57.19;74130.38;5279650;26;98346;-73
2024/04/14 06:39:49;;;;;;;;;7.00;7.00;;;;;-143.90;56.30;74111.78;5270530;26;104950;-72
2024/04/14 06:42:16;;;;;;;;;8.00;7.00;;;;;-143.90;54.84;74105.59;5279839;26;99761;-71
2024/04/14 06:44:43;;;;;;;;;8.67;7.67;;;;;-143.90;55.03;74101.44;5289947;26;98058;-72
2024/04/14 06:47:10;;;;;;;;;6.33;6.33;;;;;-143.90;54.97;74080.78;5283884;26;98732;-71
2024/04/14 06:49:37;;;;;;;;;11.00;7.67;;;;;-143.90;53.62;74080.78;5271339;26;97925;-72
2024/04/14 06:52:05;;;;;;;;;9.33;7.00;;;;;-143.90;54.03;74064.25;5279716;26;99901;-72
2024/04/14 06:54:32;;;;;;;;;6.00;6.00;;;;;-143.90;52.69;74045.66;5285905;26;98203;-71
2024/04/14 06:56:58;;;;;;;;;7.33;7.00;;;;;-143.90;52.83;74037.38;5249582;26;98257;-72
2024/04/14 06:59:25;;;;;;;;;6.33;6.00;;;;;-143.90;52.31;74039.44;5271677;26;98332;-72
2024/04/14 07:01:52;;;;;;;;;8.00;8.00;;;;;-143.90;51.78;74039.44;5280499;26;100472;-71
2024/04/14 07:04:19;;;;;;;;;7.67;7.67;;;;;-143.90;52.07;74037.38;5270490;26;101167;-72
2024/04/14 07:06:46;;;;;;;;;8.00;7.00;;;;;-143.90;51.26;74064.25;5282301;26;98338;-71
2024/04/14 07:09:13;;;;;;;;;8.00;7.00;;;;;-143.90;52.08;74058.06;5285849;26;97992;-72
2024/04/14 07:11:40;;;;;;;;;8.33;7.33;;;;;-143.90;52.07;74049.78;5268611;26;99723;-72
2024/04/14 07:14:07;;;;;;;;;5.67;5.67;;;;;-143.90;52.04;74041.50;5268273;26;97952;-71
2024/04/14 07:16:34;;;;;;;;;5.33;5.33;;;;;-143.90;51.30;74024.97;5278792;26;98714;-71
2024/04/14 07:19:01;;;;;;;;;6.33;6.00;;;;;-143.90;51.11;74004.31;5279105;26;98117;-70
2024/04/14 07:21:27;;;;;;;;;6.67;6.67;;;;;-143.90;50.39;73993.97;5270921;26;99788;-71
2024/04/14 07:23:54;;;;;;;;;9.00;6.67;;;;;-143.90;50.41;73977.44;5279979;26;98055;-72
2024/04/14 07:26:21;;;;;;;;;9.00;9.00;;;;;-143.90;48.12;73973.31;5275954;26;98502;-71
2024/04/14 07:28:48;;;;;;;;;6.33;6.33;;;;;-143.90;48.72;73948.50;5281403;26;98094;-71
2024/04/14 07:31:15;;;;;;;;;9.00;9.00;;;;;-143.90;47.77;73944.38;5277947;26;99734;-71
2024/04/14 07:33:41;;;;;;;;;6.00;4.33;;;;;-143.90;47.85;73923.72;5270715;26;98521;-71
2024/04/14 07:36:08;;;;;;;;;8.00;8.00;;;;;-143.90;47.88;73909.25;5276696;26;97695;-71
2024/04/14 07:38:35;;;;;;;;;7.00;7.00;;;;;-143.90;47.61;73872.03;5277308;26;97894;-71
2024/04/14 07:41:02;;;;;;;;;10.67;8.00;;;;;-143.90;46.83;73865.84;5285665;25;99492;-72
2024/04/14 07:43:29;;;;;;;;;9.00;8.00;;;;;-143.90;46.36;73849.31;5277279;26;98312;-71
2024/04/14 07:45:56;;;;;;;;;7.00;7.00;;;;;-143.90;46.01;73832.78;5279154;26;98466;-71
2024/04/14 07:48:22;;;;;;;;;7.00;6.00;;;;;-143.90;45.72;73828.63;5280889;26;98238;-72
2024/04/14 07:50:49;;;;;;;;;8.67;8.00;;;;;-143.90;45.69;73832.78;5281671;26;99761;-71
2024/04/14 07:53:16;;;;;;;;;9.00;9.00;;;;;-143.90;45.06;73824.50;5272862;26;99801;-71
2024/04/14 07:55:43;;;;;;;;;5.00;4.67;;;;;-143.90;45.49;73812.09;5271060;26;98138;-71
2024/04/14 07:58:10;;;;;;;;;6.00;6.00;;;;;-143.90;44.81;73807.97;5284542;26;102429;-71
2024/04/14 08:00:36;;;;;;;;;6.00;6.00;;;;;-143.90;44.57;73803.84;5277885;26;99766;-71
2024/04/14 08:03:04;;;;;;;;;4.67;4.00;;;;;-143.90;44.67;73810.03;5276936;26;97809;-71
2024/04/14 08:05:30;;;;;;;;;7.33;6.00;;;;;-143.90;44.09;73810.03;5273341;26;100348;-71
2024/04/14 08:07:57;;;;;;;;;7.00;7.00;;;;;-143.90;44.29;73807.97;5282810;26;98315;-71
2024/04/14 08:10:24;;;;;;;;;5.67;5.67;;;;;-143.90;43.62;73810.03;5282709;26;99690;-71
2024/04/14 08:12:51;;;;;;;;;6.33;6.33;;;;;-143.90;43.07;73803.84;5339849;26;98120;-71
2024/04/14 08:15:18;;;;;;;;;8.00;8.00;;;;;-143.90;43.10;73803.84;5268093;26;98613;-71
2024/04/14 08:17:45;;;;;;;;;7.00;6.67;;;;;-143.90;43.23;73783.16;5280014;26;98330;-71
2024/04/14 08:20:11;;;;;;;;;5.00;5.00;;;;;-143.90;42.35;73741.84;5278914;26;99726;-71
2024/04/14 08:22:38;;;;;;;;;7.33;7.33;;;;;-143.90;42.20;73737.69;5274795;26;101092;-71
2024/04/14 08:25:05;;;;;;;;;8.00;7.67;;;;;-143.90;41.60;73721.16;5273335;26;97876;-71
2024/04/14 08:27:32;;;;;;;;;7.00;6.00;;;;;-143.90;41.37;73708.78;5268523;26;97891;-72
2024/04/14 08:29:59;;;;;;;;;7.00;7.00;;;;;-143.90;40.91;73733.56;5272470;26;100223;-72
2024/04/14 08:32:26;;;;;;;;;7.33;7.00;;;;;-143.90;41.17;73712.91;5274917;26;98242;-71
2024/04/14 08:34:55;;;;;;;;;9.67;9.00;;;;;-143.90;41.22;73700.50;5281640;26;98260;-71
2024/04/14 08:37:22;;;;;;;;;6.00;6.00;;;;;-143.90;40.80;73683.97;5280505;26;98186;-72
2024/04/14 08:39:49;;;;;;;;;9.00;8.00;;;;;-143.90;41.06;73667.44;5277736;26;99373;-71
2024/04/14 08:42:17;;;;;;;;;7.00;7.00;;;;;-143.90;39.84;73659.16;5282470;26;98139;-72
2024/04/14 08:44:49;;;;;;;;;7.00;7.00;;;;;-143.90;40.61;73638.50;5276381;26;97960;-73
2024/04/14 08:47:18;;;;;;;;;7.00;7.00;;;;;-143.90;39.82;73632.31;5276731;26;98066;-71
2024/04/14 08:49:46;;;;;;;;;7.67;7.67;;;;;-143.90;39.27;73611.63;5268679;25;100984;-72
2024/04/14 08:52:15;;;;;;;;;7.00;7.00;;;;;-143.90;39.43;73613.72;5281091;26;98025;-71
2024/04/14 08:54:42;;;;;;;;;8.00;8.00;;;;;-143.90;39.13;73605.44;5272893;26;98272;-71
2024/04/14 08:57:13;;;;;;;;;5.33;5.33;;;;;-143.90;39.05;73574.44;5272874;26;98370;-72
2024/04/14 08:59:41;;;;;;;;;11.00;9.00;;;;;-143.90;38.22;73576.50;5271686;26;99953;-71
2024/04/14 09:02:10;;;;;;;;;9.33;8.33;;;;;-143.90;38.30;73586.84;5279765;26;97963;-71
2024/04/14 09:04:39;;;;;;;;;8.00;8.00;;;;;-143.90;38.83;73574.44;5277095;26;98324;-71
2024/04/14 09:07:06;;;;;;;;;7.67;7.33;;;;;-143.90;38.49;73568.25;5286039;26;98345;-71
2024/04/14 09:09:33;;;;;;;;;9.00;8.33;;;;;-143.90;38.02;73593.03;5272288;26;104479;-71
2024/04/14 09:12:00;;;;;;;;;6.00;6.00;;;;;-143.90;38.25;73605.44;5275118;26;99645;-71
2024/04/14 09:14:27;;;;;;;;;7.33;7.33;;;;;-143.90;38.42;73607.50;5276073;26;98411;-71
2024/04/14 09:16:54;;;;;;;;;9.00;8.33;;;;;-143.90;38.29;73621.97;5275441;26;98444;-71
2024/04/14 09:19:21;;;;;;;;;8.33;7.00;;;;;-143.90;38.41;73628.16;5271090;26;99750;-72
2024/04/14 09:21:49;;;;;;;;;7.67;7.00;;;;;-143.90;38.46;73601.31;5269693;26;99557;-72
2024/04/14 09:24:16;;;;;;;;;7.33;7.00;;;;;-143.90;37.93;73574.44;5268728;26;99624;-72
2024/04/14 09:26:44;;;;;;;;;6.00;5.00;;;;;-143.90;38.32;73555.84;5281044;26;98360;-72
2024/04/14 09:29:11;;;;;;;;;8.00;8.00;;;;;-143.90;38.10;73590.97;5270827;26;99981;-71
2024/04/14 09:31:37;;;;;;;;;8.00;7.00;;;;;-143.90;38.10;73580.63;5269208;26;98229;-72
2024/04/14 09:34:05;;;;;;;;;8.33;7.67;;;;;-143.90;38.29;73580.63;5275758;26;97935;-72
2024/04/14 09:36:32;;;;;;;;;7.33;7.33;;;;;-143.90;38.57;73593.03;5282943;26;98033;-72
2024/04/14 09:39:01;;;;;;;;;8.00;8.00;;;;;-143.90;38.02;73611.63;5280879;26;99769;-73
2024/04/14 09:41:29;;;;;;;;;7.00;7.00;;;;;-143.90;38.59;73619.91;5275812;26;98462;-72
2024/04/14 09:43:58;;;;;;;;;8.00;7.00;;;;;-143.90;38.95;73626.09;5277384;26;98169;-71
2024/04/14 09:46:27;;;;;;;;;10.33;8.33;;;;;-143.90;38.36;73601.31;5285153;26;98904;-71
2024/04/14 09:48:54;;;;;;;;;5.00;4.67;;;;;-143.90;38.65;73593.03;5270873;26;102458;-72
2024/04/14 09:51:22;;;;;;;;;9.00;8.00;;;;;-143.90;39.38;73603.38;5284069;26;98671;-73
2024/04/14 09:53:50;;;;;;;;;6.00;6.00;;;;;-143.90;38.56;73574.44;5268304;26;98092;-72
2024/04/14 09:56:17;;;;;;;;;8.00;7.67;;;;;-143.90;38.83;73572.38;5282492;26;98246;-71
2024/04/14 09:58:44;;;;;;;;;7.00;6.67;;;;;-143.90;38.42;73543.44;5269821;26;99943;-72
2024/04/14 10:01:17;;;;;;;;;7.00;7.00;;;;;-143.90;38.34;73549.63;5275854;26;98238;-73
2024/04/14 10:03:46;;;;;;;;;9.00;8.33;;;;;-143.90;38.68;73568.25;5271663;26;102927;-72
2024/04/14 10:06:15;;;;;;;;;6.33;6.33;;;;;-143.90;38.80;73570.31;5274441;26;98249;-72
2024/04/14 10:08:42;;;;;;;;;7.33;7.33;;;;;-143.90;38.63;73559.97;5278746;26;99792;-72
2024/04/14 10:11:10;;;;;;;;;9.33;9.00;;;;;-143.90;38.63;73572.38;5283636;26;98244;-71
2024/04/14 10:13:48;;;;;;;;;8.00;7.00;;;;;-143.90;38.51;73514.50;5276254;26;98041;-72
2024/04/14 10:16:24;;;;;;;;;7.00;7.00;;;;;-143.90;38.44;73510.38;5266811;26;97948;-73
2024/04/14 10:18:51;;;;;;;;;4.67;3.00;;;;;-143.90;38.19;73504.19;5273910;26;99954;-72
2024/04/14 10:21:21;;;;;;;;;8.33;7.33;;;;;-143.90;37.85;73500.03;5281276;26;104044;-73
2024/04/14 10:23:52;;;;;;;;;8.67;8.00;;;;;-143.90;38.51;73543.44;5273450;26;98232;-72
2024/04/14 10:26:20;;;;;;;;;8.00;7.00;;;;;-143.90;38.84;73580.63;5287029;26;97934;-72
2024/04/14 10:28:51;;;;;;;;;8.33;8.00;;;;;-143.90;39.50;73568.25;5278075;26;99749;-72
2024/04/14 10:31:29;;;;;;;;;7.00;7.00;;;;;-143.90;39.24;73576.50;5278528;26;99676;-73
2024/04/14 10:34:10;;;;;;;;;8.33;7.00;;;;;-143.90;39.68;73590.97;5276493;25;98141;-71
2024/04/14 10:36:42;;;;;;;;;8.67;8.00;;;;;-143.90;39.85;73586.84;5286011;26;98329;-73
2024/04/14 10:39:14;;;;;;;;;8.67;7.00;;;;;-143.90;39.78;73621.97;5283994;26;105811;-71
2024/04/14 10:41:41;;;;;;;;;7.67;7.33;;;;;-143.90;40.11;73601.31;5264724;26;99756;-71
2024/04/14 10:44:18;;;;;;;;;9.67;9.00;;;;;-143.90;40.02;73582.72;5284754;26;97913;-72
2024/04/14 10:46:49;;;;;;;;;7.67;7.33;;;;;-143.90;39.98;73566.16;5273610;26;98267;-72
2024/04/14 10:49:17;;;;;;;;;8.67;7.33;;;;;-143.90;39.53;73553.78;5277793;26;99833;-71
2024/04/14 10:51:44;;;;;;;;;7.00;7.00;;;;;-143.90;38.69;73555.84;5272125;26;98098;-71
2024/04/14 10:54:11;;;;;;;;;7.00;7.00;;;;;-143.90;39.91;73555.84;5283282;26;97849;-72
2024/04/14 10:56:38;;;;;;;;;9.00;9.00;;;;;-143.90;39.33;73537.25;5282771;26;98011;-72
2024/04/14 10:59:05;;;;;;;;;9.67;9.00;;;;;-143.90;39.03;73547.56;5274968;26;100370;-73
2024/04/14 11:01:33;;;;;;;;;7.33;7.00;;;;;-143.90;39.17;73551.72;5265326;26;97706;-72
2024/04/14 11:04:04;;;;;;;;;7.67;7.67;;;;;-143.90;39.66;73541.38;5281336;26;98417;-72
2024/04/14 11:06:31;;;;;;;;;8.00;8.00;;;;;-143.90;39.87;73537.25;5273602;26;101869;-72
2024/04/14 11:08:59;;;;;;;;;11.00;8.33;;;;;-143.90;39.49;73537.25;5277117;26;100172;-72